createdAt,value
2018-06-12T00:00:51.029Z,93525.95
2018-06-12T00:03:20.034Z,93521.44
2018-06-12T00:05:49.427Z,93525.98
2018-06-12T00:08:18.762Z,93526.23
2018-06-12T00:10:47.818Z,93536.47
2018-06-12T00:13:16.933Z,93530.94
2018-06-12T00:15:45.956Z,93523.84
2018-06-12T00:18:14.908Z,93531.98
2018-06-12T00:20:43.987Z,93528.75
2018-06-12T00:23:13.255Z,93534.56
2018-06-12T00:25:42.239Z,93533.03
2018-06-12T00:28:11.488Z,93524.55
2018-06-12T00:30:40.609Z,93524.04
2018-06-12T00:33:09.949Z,93520.06
2018-06-12T00:35:39.327Z,93523.86
2018-06-12T00:38:08.872Z,93530.11
2018-06-12T00:40:38.012Z,93536.05
2018-06-12T00:43:07.501Z,93530.18
2018-06-12T00:45:36.458Z,93533.67
2018-06-12T00:48:05.504Z,93535.95
2018-06-12T00:50:34.483Z,93538.10
2018-06-12T00:53:03.851Z,93526.04
2018-06-12T00:55:33.204Z,93532.86
2018-06-12T00:58:02.638Z,93526.83
2018-06-12T01:00:31.894Z,93529.72
2018-06-12T01:03:01.264Z,93520.97
2018-06-12T01:05:30.644Z,93527.37
2018-06-12T01:07:59.980Z,93535.84
2018-06-12T01:10:30.054Z,93536.41
2018-06-12T01:12:59.172Z,93528.58
2018-06-12T01:15:28.263Z,93530.16
2018-06-12T01:17:57.193Z,93533.51
2018-06-12T01:20:26.184Z,93532.45
2018-06-12T01:22:55.221Z,93526.66
2018-06-12T01:25:24.203Z,93541.61
2018-06-12T01:27:53.648Z,93548.70
2018-06-12T01:30:23.146Z,93551.61
2018-06-12T01:32:52.111Z,93546.88
2018-06-12T01:35:21.217Z,93545.83
2018-06-12T01:37:50.149Z,93543.98
2018-06-12T01:40:19.179Z,93549.78
2018-06-12T01:42:48.237Z,93542.44
2018-06-12T01:45:17.276Z,93538.28
2018-06-12T01:47:46.287Z,93540.41
2018-06-12T01:50:15.359Z,93543.03
2018-06-12T01:52:44.449Z,93541.76
2018-06-12T01:55:13.654Z,93546.53
2018-06-12T01:57:42.619Z,93547.06
2018-06-12T02:00:11.930Z,93542.82
2018-06-12T02:02:41.329Z,93546.23
2018-06-12T02:05:10.333Z,93537.58
2018-06-12T02:07:39.413Z,93532.02
2018-06-12T02:10:08.419Z,93535.73
2018-06-12T02:12:37.551Z,93537.05
2018-06-12T02:15:06.875Z,93541.25
2018-06-12T02:17:36.278Z,93540.97
2018-06-12T02:20:05.682Z,93546.48
2018-06-12T02:22:34.721Z,93543.55
2018-06-12T02:25:03.680Z,93537.56
2018-06-12T02:27:32.753Z,93535.66
2018-06-12T02:30:02.124Z,93529.91
2018-06-12T02:32:31.057Z,93528.34
2018-06-12T02:35:00.120Z,93530.48
2018-06-12T02:37:29.083Z,93532.61
2018-06-12T02:39:58.848Z,93536.58
2018-06-12T02:42:27.958Z,93535.27
2018-06-12T02:44:57.061Z,93536.84
2018-06-12T02:47:26.027Z,93529.77
2018-06-12T02:49:54.985Z,93528.42
2018-06-12T02:52:24.005Z,93532.34
2018-06-12T02:54:53.243Z,93528.14
2018-06-12T02:57:22.325Z,93531.04
2018-06-12T02:59:51.813Z,93533.95
2018-06-12T03:02:21.266Z,93535.75
2018-06-12T03:04:50.382Z,93532.91
2018-06-12T03:07:19.632Z,93532.70
2018-06-12T03:09:49.036Z,93539.21
2018-06-12T03:12:18.400Z,93532.66
2018-06-12T03:14:47.527Z,93532.69
2018-06-12T03:17:16.556Z,93528.46
2018-06-12T03:19:45.911Z,93519.55
2018-06-12T03:22:14.880Z,93515.09
2018-06-12T03:24:43.933Z,93518.52
2018-06-12T03:27:12.888Z,93519.83
2018-06-12T03:29:41.962Z,93523.17
2018-06-12T03:32:11.020Z,93523.96
2018-06-12T03:34:40.320Z,93533.44
2018-06-12T03:37:09.693Z,93533.44
2018-06-12T03:39:39.006Z,93535.27
2018-06-12T03:42:08.404Z,93544.70
2018-06-12T03:44:37.673Z,93541.30
2018-06-12T03:47:06.621Z,93540.77
2018-06-12T03:49:42.202Z,93535.75
2018-06-12T03:52:11.221Z,93542.56
2018-06-12T03:54:40.642Z,93546.49
2018-06-12T03:57:09.845Z,93543.59
2018-06-12T03:59:39.359Z,93541.73
2018-06-12T04:02:08.645Z,93534.91
2018-06-12T04:04:37.646Z,93540.41
2018-06-12T04:07:06.666Z,93534.41
2018-06-12T04:09:35.640Z,93535.66
2018-06-12T04:12:04.670Z,93535.62
2018-06-12T04:14:33.664Z,93541.91
2018-06-12T04:17:03.193Z,93540.66
2018-06-12T04:19:32.155Z,93545.44
2018-06-12T04:22:01.172Z,93544.38
2018-06-12T04:24:30.619Z,93540.72
2018-06-12T04:27:00.032Z,93546.95
2018-06-12T04:29:29.325Z,93546.63
2018-06-12T04:31:58.264Z,93543.47
2018-06-12T04:34:27.328Z,93546.86
2018-06-12T04:36:56.345Z,93551.80
2018-06-12T04:39:25.356Z,93550.44
2018-06-12T04:41:54.386Z,93550.42
2018-06-12T04:44:23.568Z,93554.02
2018-06-12T04:46:52.545Z,93553.19
2018-06-12T04:49:21.664Z,93549.20
2018-06-12T04:51:50.679Z,93550.25
2018-06-12T04:54:19.749Z,93546.48
2018-06-12T04:56:48.801Z,93545.91
2018-06-12T04:59:17.997Z,93543.08
2018-06-12T05:01:47.278Z,93545.89
2018-06-12T05:04:16.669Z,93546.00
2018-06-12T05:06:47.692Z,93549.28
2018-06-12T05:09:16.787Z,93558.17
2018-06-12T05:11:46.399Z,93564.14
2018-06-12T05:14:16.130Z,93573.52
2018-06-12T05:16:45.252Z,93578.24
2018-06-12T05:19:14.362Z,93586.58
2018-06-12T05:21:44.289Z,93588.41
2018-06-12T05:24:13.590Z,93596.17
2018-06-12T05:26:46.638Z,93591.11
2018-06-12T05:29:15.768Z,93578.61
2018-06-12T05:31:44.931Z,93574.59
2018-06-12T05:34:14.810Z,93573.17
2018-06-12T05:36:43.845Z,93575.48
2018-06-12T05:39:12.897Z,93575.09
2018-06-12T05:41:48.221Z,93580.53
2018-06-12T05:44:17.764Z,93571.95
2018-06-12T05:46:48.062Z,93580.64
2018-06-12T05:49:22.628Z,93579.62
2018-06-12T05:51:51.968Z,93575.66
2018-06-12T05:54:21.485Z,93572.27
2018-06-12T05:56:50.909Z,93575.45
2018-06-12T05:59:20.180Z,93575.78
2018-06-12T06:01:49.531Z,93569.73
2018-06-12T06:04:18.934Z,93572.98
2018-06-12T06:06:48.379Z,93572.85
2018-06-12T06:09:17.637Z,93568.17
2018-06-12T06:11:46.939Z,93571.47
2018-06-12T06:14:15.954Z,93570.27
2018-06-12T06:16:45.294Z,93571.30
2018-06-12T06:19:14.767Z,93575.09
2018-06-12T06:21:46.198Z,93571.88
2018-06-12T06:24:15.513Z,93571.78
2018-06-12T06:26:46.553Z,93578.31
2018-06-12T06:29:16.009Z,93573.42
2018-06-12T06:31:46.578Z,93573.93
2018-06-12T06:34:15.910Z,93571.41
2018-06-12T06:36:45.350Z,93565.77
2018-06-12T06:39:14.675Z,93564.53
2018-06-12T06:41:44.854Z,93568.28
2018-06-12T06:44:17.871Z,93564.74
2018-06-12T06:46:47.743Z,93560.26
2018-06-12T06:49:18.408Z,93557.03
2018-06-12T06:51:48.858Z,93551.11
2018-06-12T06:54:24.995Z,93553.33
2018-06-12T06:56:54.588Z,93557.07
2018-06-12T06:59:24.190Z,93562.52
2018-06-12T07:01:55.579Z,93558.98
2018-06-12T07:04:25.502Z,93553.73
2018-06-12T07:06:57.091Z,93551.84
2018-06-12T07:09:26.486Z,93560.61
2018-06-12T07:11:55.732Z,93562.50
2018-06-12T07:14:25.187Z,93553.15
2018-06-12T07:16:54.721Z,93545.97
2018-06-12T07:19:23.700Z,93545.80
2018-06-12T07:21:55.818Z,93534.56
2018-06-12T07:24:25.568Z,93533.70
2018-06-12T07:26:54.803Z,93528.27
2018-06-12T07:29:24.361Z,93525.92
2018-06-12T07:31:53.832Z,93524.94
2018-06-12T07:34:24.326Z,93515.16
2018-06-12T07:36:54.494Z,93522.73
2018-06-12T07:39:24.294Z,93517.88
2018-06-12T07:41:55.691Z,93517.16
2018-06-12T07:44:25.230Z,93506.52
2018-06-12T07:46:54.923Z,93508.38
2018-06-12T07:49:25.482Z,93504.94
2018-06-12T07:51:55.159Z,93499.36
2018-06-12T07:54:25.858Z,93500.39
2018-06-12T07:56:55.049Z,93495.69
2018-06-12T07:59:24.380Z,93498.08
2018-06-12T08:01:54.544Z,93494.50
2018-06-12T08:04:24.413Z,93495.46
2018-06-12T08:06:53.767Z,93496.55
2018-06-12T08:09:23.744Z,93490.53
2018-06-12T08:11:53.290Z,93498.33
2018-06-12T08:14:23.225Z,93494.28
2018-06-12T08:16:52.209Z,93487.81
2018-06-12T08:19:21.457Z,93483.81
2018-06-12T08:21:52.591Z,93475.95
2018-06-12T08:24:22.141Z,93472.64
2018-06-12T08:26:51.124Z,93471.89
2018-06-12T08:29:22.460Z,93468.77
2018-06-12T08:31:52.326Z,93460.78
2018-06-12T08:34:21.639Z,93464.30
2018-06-12T08:36:50.741Z,93457.80
2018-06-12T08:39:19.775Z,93453.86
2018-06-12T08:41:48.908Z,93437.28
2018-06-12T08:44:17.995Z,93434.47
2018-06-12T08:46:49.557Z,93433.08
2018-06-12T08:49:19.510Z,93431.84
2018-06-12T08:51:48.601Z,93426.10
2018-06-12T08:54:19.291Z,93419.08
2018-06-12T08:56:48.509Z,93420.94
2018-06-12T08:59:17.587Z,93417.31
2018-06-12T09:01:47.790Z,93411.55
2018-06-12T09:04:16.822Z,93416.42
2018-06-12T09:06:45.844Z,93407.78
2018-06-12T09:09:15.355Z,93408.64
2018-06-12T09:11:44.671Z,93403.87
2018-06-12T09:14:13.720Z,93398.45
2018-06-12T09:16:44.269Z,93394.73
2018-06-12T09:19:13.325Z,93402.41
2018-06-12T09:21:42.915Z,93400.17
2018-06-12T09:24:12.024Z,93397.03
2018-06-12T09:26:41.117Z,93399.38
2018-06-12T09:29:11.580Z,93398.25
2018-06-12T09:31:40.811Z,93395.25
2018-06-12T09:34:13.413Z,93393.40
2018-06-12T09:36:44.544Z,93384.02
2018-06-12T09:39:14.666Z,93390.69
2018-06-12T09:41:44.391Z,93390.77
2018-06-12T09:44:14.736Z,93381.22
2018-06-12T09:46:45.488Z,93376.49
2018-06-12T09:49:14.771Z,93379.91
2018-06-12T09:51:44.261Z,93376.86
2018-06-12T09:54:13.639Z,93364.97
2018-06-12T09:56:44.799Z,93377.13
2018-06-12T09:59:14.219Z,93371.41
2018-06-12T10:01:44.343Z,93374.61
2018-06-12T10:04:15.592Z,93379.06
2018-06-12T10:06:45.009Z,93369.55
2018-06-12T10:09:14.369Z,93369.05
2018-06-12T10:11:44.397Z,93360.20
2018-06-12T10:14:15.444Z,93365.83
2018-06-12T10:16:45.675Z,93352.84
2018-06-12T10:19:14.919Z,93347.22
2018-06-12T10:21:45.075Z,93339.94
2018-06-12T10:24:15.239Z,93341.28
2018-06-12T10:26:44.604Z,93343.23
2018-06-12T10:29:15.386Z,93345.58
2018-06-12T10:31:45.459Z,93335.47
2018-06-12T10:34:14.887Z,93333.92
2018-06-12T10:36:44.967Z,93335.78
2018-06-12T10:39:15.285Z,93327.80
2018-06-12T10:41:46.017Z,93325.79
2018-06-12T10:44:16.046Z,93319.86
2018-06-12T10:46:45.327Z,93319.08
2018-06-12T10:49:14.644Z,93311.20
2018-06-12T10:51:44.676Z,93316.70
2018-06-12T10:54:16.134Z,93307.06
2018-06-12T10:56:45.454Z,93307.16
2018-06-12T10:59:15.441Z,93302.65
2018-06-12T11:01:45.140Z,93300.64
2018-06-12T11:04:14.651Z,93291.19
2018-06-12T11:06:43.996Z,93292.73
2018-06-12T11:09:13.304Z,93278.55
2018-06-12T11:11:42.515Z,93270.47
2018-06-12T11:14:11.935Z,93271.20
2018-06-12T11:16:41.909Z,93263.37
2018-06-12T11:19:11.384Z,93266.05
2018-06-12T11:21:40.750Z,93268.87
2018-06-12T11:24:10.048Z,93265.47
2018-06-12T11:26:39.579Z,93272.16
2018-06-12T11:29:09.238Z,93259.48
2018-06-12T11:31:39.182Z,93257.63
2018-06-12T11:34:08.374Z,93251.65
2018-06-12T11:36:39.057Z,93242.42
2018-06-12T11:39:08.926Z,93244.39
2018-06-12T11:41:38.289Z,93247.30
2018-06-12T11:44:08.474Z,93247.30
2018-06-12T11:46:40.573Z,93244.50
2018-06-12T11:49:10.099Z,93240.36
2018-06-12T11:51:39.576Z,93243.59
2018-06-12T11:54:08.998Z,93243.55
2018-06-12T11:56:38.307Z,93237.62
2018-06-12T11:59:09.003Z,93232.02
2018-06-12T12:01:38.421Z,93234.21
2018-06-12T12:04:07.987Z,93229.28
2018-06-12T12:06:37.092Z,93215.62
2018-06-12T12:09:09.873Z,93206.67
2018-06-12T12:11:39.347Z,93195.59
2018-06-12T12:14:10.530Z,93192.15
2018-06-12T12:16:41.602Z,93180.70
2018-06-12T12:19:10.993Z,93169.20
2018-06-12T12:21:41.548Z,93175.70
2018-06-12T12:24:11.274Z,93175.25
2018-06-12T12:26:46.559Z,93170.30
2018-06-12T12:29:16.003Z,93170.44
2018-06-12T12:31:45.328Z,93171.02
2018-06-12T12:34:15.613Z,93154.75
2018-06-12T12:36:47.963Z,93153.05
2018-06-12T12:39:17.362Z,93140.49
2018-06-12T12:41:46.886Z,93132.45
2018-06-12T12:44:16.342Z,93134.26
2018-06-12T12:46:46.443Z,93140.19
2018-06-12T12:49:16.592Z,93133.99
2018-06-12T12:51:46.075Z,93135.69
2018-06-12T12:54:15.166Z,93140.41
2018-06-12T12:56:44.223Z,93149.30
2018-06-12T12:59:13.529Z,93156.42
2018-06-12T13:01:43.015Z,93161.37
2018-06-12T13:04:13.073Z,93168.57
2018-06-12T13:06:44.107Z,93162.02
2018-06-12T13:09:13.738Z,93170.63
2018-06-12T13:11:46.190Z,93166.55
2018-06-12T13:14:33.368Z,93173.62
2018-06-12T13:17:02.443Z,93174.58
2018-06-12T13:19:32.716Z,93166.98
2018-06-12T13:22:04.125Z,93174.95
2018-06-12T13:24:33.603Z,93192.97
2018-06-12T13:27:03.225Z,93204.53
2018-06-12T13:29:33.547Z,93193.55
2018-06-12T13:32:03.488Z,93168.53
2018-06-12T13:34:32.695Z,93148.01
2018-06-12T13:37:02.056Z,93141.59
2018-06-12T13:39:31.613Z,93148.08
2018-06-12T13:42:01.719Z,93156.36
2018-06-12T13:44:31.190Z,93192.11
2018-06-12T13:47:02.770Z,93239.17
2018-06-12T13:49:33.130Z,93254.33
2018-06-12T13:52:02.718Z,93244.47
2018-06-12T13:54:32.068Z,93235.73
2018-06-12T13:57:04.248Z,93222.58
2018-06-12T13:59:38.887Z,93213.08
2018-06-12T14:02:08.592Z,93233.76
2018-06-12T14:04:39.050Z,93245.92
2018-06-12T14:07:12.924Z,93262.75
2018-06-12T14:09:42.362Z,93284.58
2018-06-12T14:12:11.817Z,93305.45
2018-06-12T14:14:41.196Z,93311.41
2018-06-12T14:17:11.785Z,93321.98
2018-06-12T14:19:45.147Z,93358.40
2018-06-12T14:22:16.011Z,93347.89
2018-06-12T14:24:46.120Z,93346.80
2018-06-12T14:27:15.468Z,93322.45
2018-06-12T14:29:46.053Z,93316.96
2018-06-12T14:32:16.682Z,93321.84
2018-06-12T14:34:46.060Z,93317.29
2018-06-12T14:37:15.555Z,93319.23
2018-06-12T14:39:45.166Z,93329.48
2018-06-12T14:42:16.579Z,93337.64
2018-06-12T14:44:46.900Z,93341.41
2018-06-12T14:47:16.047Z,93339.73
2018-06-12T14:49:45.556Z,93335.92
2018-06-12T14:52:15.346Z,93323.67
2018-06-12T14:54:44.643Z,93322.66
2018-06-12T14:57:13.994Z,93312.61
2018-06-12T14:59:43.919Z,93318.78
2018-06-12T15:02:14.694Z,93316.64
2018-06-12T15:04:44.286Z,93311.59
2018-06-12T15:07:15.128Z,93296.68
2018-06-12T15:09:45.017Z,93293.96
2018-06-12T15:12:14.617Z,93295.98
2018-06-12T15:14:44.143Z,93293.40
2018-06-12T15:17:14.927Z,93286.25
2018-06-12T15:19:47.515Z,93290.42
2018-06-12T15:22:18.999Z,93302.79
2018-06-12T15:24:51.075Z,93334.17
2018-06-12T15:27:21.449Z,93350.54
2018-06-12T15:29:51.710Z,93366.13
2018-06-12T15:32:20.889Z,93398.97
2018-06-12T15:34:50.261Z,93406.79
2018-06-12T15:37:20.728Z,93418.59
2018-06-12T15:39:50.264Z,93423.48
2018-06-12T15:42:20.880Z,93408.22
2018-06-12T15:44:51.119Z,93388.89
2018-06-12T15:47:22.749Z,93365.50
2018-06-12T15:49:53.112Z,93371.22
2018-06-12T15:52:25.657Z,93395.66
2018-06-12T15:54:57.439Z,93399.69
2018-06-12T15:57:28.514Z,93393.09
2018-06-12T15:59:59.153Z,93403.84
2018-06-12T16:02:29.451Z,93392.22
2018-06-12T16:05:00.230Z,93374.66
2018-06-12T16:07:30.268Z,93353.80
2018-06-12T16:10:04.445Z,93339.31
2018-06-12T16:12:36.047Z,93341.80
2018-06-12T16:15:08.839Z,93341.73
2018-06-12T16:17:38.582Z,93320.09
2018-06-12T16:20:08.782Z,93307.89
2018-06-12T16:22:39.905Z,93306.73
2018-06-12T16:25:10.397Z,93313.41
2018-06-12T16:27:40.597Z,93335.41
2018-06-12T16:30:10.111Z,93348.23
2018-06-12T16:32:42.650Z,93356.39
2018-06-12T16:35:13.392Z,93356.39
2018-06-12T16:37:45.892Z,93343.12
2018-06-12T16:40:17.216Z,93329.75
2018-06-12T16:42:49.169Z,93329.56
2018-06-12T16:45:19.492Z,93353.55
2018-06-12T16:47:51.174Z,93379.62
2018-06-12T16:50:20.828Z,93388.52
2018-06-12T16:52:51.800Z,93388.71
2018-06-12T16:55:23.620Z,93389.88
2018-06-12T16:57:53.318Z,93381.47
2018-06-12T17:00:25.858Z,93380.17
2018-06-12T17:02:56.858Z,93368.31
2018-06-12T17:05:27.149Z,93355.88
2018-06-12T17:07:56.706Z,93369.43
2018-06-12T17:10:26.150Z,93356.83
2018-06-12T17:12:55.677Z,93356.57
2018-06-12T17:15:25.173Z,93352.86
2018-06-12T17:17:54.816Z,93346.27
2018-06-12T17:20:24.444Z,93338.06
2018-06-12T17:22:53.888Z,93342.70
2018-06-12T17:25:23.245Z,93343.58
2018-06-12T17:27:52.757Z,93350.38
2018-06-12T17:30:24.340Z,93354.06
2018-06-12T17:32:56.446Z,93351.57
2018-06-12T17:35:26.352Z,93353.13
2018-06-12T17:37:56.039Z,93347.52
2018-06-12T17:40:25.953Z,93337.70
2018-06-12T17:42:55.459Z,93336.83
2018-06-12T17:45:25.741Z,93343.76
2018-06-12T17:47:55.070Z,93344.69
2018-06-12T17:50:24.603Z,93338.98
2018-06-12T17:52:55.019Z,93343.61
2018-06-12T17:55:24.790Z,93350.05
2018-06-12T17:57:54.167Z,93341.41
2018-06-12T18:00:24.602Z,93328.86
2018-06-12T18:02:55.507Z,93337.15
2018-06-12T18:05:26.425Z,93325.40
2018-06-12T18:07:59.506Z,93312.71
2018-06-12T18:10:31.223Z,93304.16
2018-06-12T18:13:00.515Z,93286.38
2018-06-12T18:15:31.415Z,93270.25
2018-06-12T18:18:01.881Z,93268.39
2018-06-12T18:20:32.709Z,93255.78
2018-06-12T18:23:02.443Z,93249.30
2018-06-12T18:25:32.721Z,93234.10
2018-06-12T18:28:06.459Z,93223.91
2018-06-12T18:30:38.119Z,93213.12
2018-06-12T18:33:08.375Z,93219.71
2018-06-12T18:35:39.882Z,93228.53
2018-06-12T18:38:11.714Z,93239.13
2018-06-12T18:40:42.922Z,93253.81
2018-06-12T18:43:12.021Z,93265.25
2018-06-12T18:45:41.417Z,93268.67
2018-06-12T18:48:11.244Z,93271.75
2018-06-12T18:50:41.475Z,93265.45
2018-06-12T18:53:11.380Z,93263.03
2018-06-12T18:55:41.409Z,93259.08
2018-06-12T18:58:14.487Z,93266.64
2018-06-12T19:00:45.840Z,93271.68
2018-06-12T19:03:16.335Z,93280.39
2018-06-12T19:05:46.666Z,93279.61
2018-06-12T19:08:16.988Z,93290.62
2018-06-12T19:10:47.146Z,93291.87
2018-06-12T19:13:16.951Z,93301.32
2018-06-12T19:15:46.967Z,93306.83
2018-06-12T19:18:19.642Z,93319.52
2018-06-12T19:20:49.432Z,93325.77
2018-06-12T19:23:20.740Z,93326.56
2018-06-12T19:25:52.735Z,93325.53
2018-06-12T19:28:22.617Z,93332.09
2018-06-12T19:30:54.164Z,93326.44
2018-06-12T19:33:23.839Z,93322.47
2018-06-12T19:35:54.182Z,93323.17
2018-06-12T19:38:24.869Z,93318.95
2018-06-12T19:40:56.060Z,93322.88
2018-06-12T19:43:27.650Z,93328.30
2018-06-12T19:45:59.162Z,93326.92
2018-06-12T19:48:28.731Z,93331.98
2018-06-12T19:50:59.260Z,93323.94
2018-06-12T19:53:29.610Z,93329.80
2018-06-12T19:55:59.155Z,93326.55
2018-06-12T19:58:28.809Z,93322.73
2018-06-12T20:00:59.122Z,93323.42
2018-06-12T20:03:29.237Z,93327.20
2018-06-12T20:05:58.752Z,93316.75
2018-06-12T20:08:30.523Z,93319.76
2018-06-12T20:11:00.986Z,93317.19
2018-06-12T20:13:30.690Z,93316.78
2018-06-12T20:16:00.407Z,93319.53
2018-06-12T20:18:30.006Z,93323.67
2018-06-12T20:20:59.448Z,93332.73
2018-06-12T20:23:29.226Z,93333.52
2018-06-12T20:25:58.691Z,93330.61
2018-06-12T20:28:29.545Z,93336.46
2018-06-12T20:31:01.085Z,93331.86
2018-06-12T20:33:30.864Z,93334.95
2018-06-12T20:36:00.970Z,93343.37
2018-06-12T20:38:30.396Z,93326.40
2018-06-12T20:40:59.886Z,93336.66
2018-06-12T20:43:30.568Z,93334.53
2018-06-12T20:46:00.682Z,93331.80
2018-06-12T20:48:30.578Z,93327.41
2018-06-12T20:51:00.891Z,93339.17
2018-06-12T20:53:32.537Z,93350.97
2018-06-12T20:56:01.950Z,93357.27
2018-06-12T20:58:31.380Z,93357.06
2018-06-12T21:01:00.799Z,93353.45
2018-06-12T21:03:30.233Z,93349.91
2018-06-12T21:05:59.641Z,93347.62
2018-06-12T21:08:29.007Z,93345.44
2018-06-12T21:10:59.761Z,93339.92
2018-06-12T21:13:29.578Z,93335.80
2018-06-12T21:16:00.078Z,93328.75
2018-06-12T21:18:29.517Z,93327.38
2018-06-12T21:20:59.988Z,93326.34
2018-06-12T21:23:30.670Z,93322.34
2018-06-12T21:26:02.147Z,93316.28
2018-06-12T21:28:32.225Z,93311.27
2018-06-12T21:31:01.581Z,93303.42
2018-06-12T21:33:32.649Z,93302.39
2018-06-12T21:36:02.291Z,93292.13
2018-06-12T21:38:31.747Z,93291.81
2018-06-12T21:41:02.924Z,93295.45
2018-06-12T21:43:32.144Z,93294.75
2018-06-12T21:46:01.411Z,93287.72
2018-06-12T21:48:30.714Z,93283.02
2018-06-12T21:51:00.106Z,93286.37
2018-06-12T21:53:29.331Z,93284.93
2018-06-12T21:55:59.201Z,93290.41
2018-06-12T21:58:28.551Z,93285.55
2018-06-12T22:00:58.072Z,93297.53
2018-06-12T22:03:27.416Z,93297.34
2018-06-12T22:05:57.666Z,93311.17
2018-06-12T22:08:27.998Z,93318.47
2018-06-12T22:10:57.238Z,93327.80
2018-06-12T22:13:26.740Z,93324.92
2018-06-12T22:15:56.619Z,93333.98
2018-06-12T22:18:26.215Z,93329.53
2018-06-12T22:20:55.549Z,93339.67
2018-06-12T22:23:25.234Z,93346.78
2018-06-12T22:25:54.273Z,93355.44
2018-06-12T22:28:23.432Z,93347.31
2018-06-12T22:30:53.245Z,93352.79
2018-06-12T22:33:23.656Z,93344.41
2018-06-12T22:35:53.041Z,93352.31
2018-06-12T22:38:22.703Z,93353.34
2018-06-12T22:40:51.957Z,93344.48
2018-06-12T22:43:20.929Z,93338.78
2018-06-12T22:45:49.939Z,93330.43
2018-06-12T22:48:19.003Z,93329.37
2018-06-12T22:50:48.946Z,93322.71
2018-06-12T22:53:20.863Z,93313.55
2018-06-12T22:55:51.419Z,93312.91
2018-06-12T22:58:20.758Z,93306.95
2018-06-12T23:00:50.156Z,93313.41
2018-06-12T23:03:19.674Z,93318.70
2018-06-12T23:05:49.336Z,93317.42
2018-06-12T23:08:19.599Z,93315.17
2018-06-12T23:10:48.660Z,93315.41
2018-06-12T23:13:18.040Z,93311.97
2018-06-12T23:15:47.177Z,93310.07
2018-06-12T23:18:17.065Z,93308.66
2018-06-12T23:20:57.687Z,93304.69
2018-06-12T23:23:26.715Z,93302.03
2018-06-12T23:25:55.724Z,93295.88
2018-06-12T23:28:27.748Z,93291.14
2018-06-12T23:30:56.745Z,93294.52
2018-06-12T23:33:26.921Z,93285.52
2018-06-12T23:35:56.437Z,93285.52
2018-06-12T23:38:25.838Z,93287.34
2018-06-12T23:40:55.946Z,93280.91
2018-06-12T23:43:25.909Z,93273.06
2018-06-12T23:45:57.160Z,93269.63
2018-06-12T23:48:26.545Z,93272.45
2018-06-12T23:50:55.920Z,93266.44
2018-06-12T23:53:26.275Z,93262.19
2018-06-12T23:55:55.520Z,93270.34
2018-06-12T23:58:30.244Z,93271.41
